createdAt,value
2017-10-18T00:00:42.266Z,13.80
2017-10-18T00:03:11.127Z,13.80
2017-10-18T00:05:40.003Z,13.80
2017-10-18T00:08:08.850Z,13.80
2017-10-18T00:10:37.707Z,13.80
2017-10-18T00:13:06.572Z,13.80
2017-10-18T00:15:42.079Z,13.80
2017-10-18T00:18:10.949Z,13.80
2017-10-18T00:20:44.534Z,13.70
2017-10-18T00:23:14.216Z,13.70
2017-10-18T00:25:43.115Z,13.60
2017-10-18T00:28:12.059Z,13.60
2017-10-18T00:30:40.919Z,13.60
2017-10-18T00:33:10.568Z,13.70
2017-10-18T00:35:39.442Z,13.70
2017-10-18T00:38:08.292Z,13.70
2017-10-18T00:40:37.158Z,13.60
2017-10-18T00:43:06.007Z,13.60
2017-10-18T00:45:34.866Z,13.60
2017-10-18T00:48:03.551Z,13.60
2017-10-18T00:50:32.221Z,13.60
2017-10-18T00:53:00.875Z,13.50
2017-10-18T00:55:29.714Z,13.40
2017-10-18T00:57:58.570Z,13.40
2017-10-18T01:00:27.422Z,13.30
2017-10-18T01:02:56.868Z,13.30
2017-10-18T01:05:25.739Z,13.30
2017-10-18T01:07:54.598Z,13.30
2017-10-18T01:10:23.450Z,13.30
2017-10-18T01:12:52.299Z,13.30
2017-10-18T01:15:21.168Z,13.30
2017-10-18T01:17:50.800Z,13.20
2017-10-18T01:20:19.303Z,13.20
2017-10-18T01:22:48.147Z,13.20
2017-10-18T01:25:17.788Z,13.20
2017-10-18T01:27:47.424Z,13.20
2017-10-18T01:30:16.286Z,13.10
2017-10-18T01:32:45.144Z,13.10
2017-10-18T01:35:13.994Z,13.10
2017-10-18T01:37:42.835Z,13.10
2017-10-18T01:40:12.494Z,13.00
2017-10-18T01:42:41.359Z,13.00
2017-10-18T01:45:10.210Z,13.00
2017-10-18T01:47:39.061Z,13.00
2017-10-18T01:50:07.891Z,12.90
2017-10-18T01:52:36.751Z,12.90
2017-10-18T01:55:05.614Z,12.90
2017-10-18T01:57:35.258Z,12.90
2017-10-18T02:00:04.446Z,12.90
2017-10-18T02:02:33.312Z,12.90
2017-10-18T02:05:03.924Z,12.80
2017-10-18T02:07:33.555Z,12.80
2017-10-18T02:10:02.402Z,12.80
2017-10-18T02:12:32.057Z,12.80
2017-10-18T02:15:00.738Z,12.80
2017-10-18T02:17:29.632Z,12.70
2017-10-18T02:19:59.259Z,12.60
2017-10-18T02:22:28.119Z,12.60
2017-10-18T02:24:56.983Z,12.60
2017-10-18T02:27:25.831Z,12.60
2017-10-18T02:29:54.723Z,12.60
2017-10-18T02:32:23.599Z,12.50
2017-10-18T02:34:52.457Z,12.50
2017-10-18T02:37:22.080Z,12.50
2017-10-18T02:39:50.940Z,12.50
2017-10-18T02:42:19.782Z,12.40
2017-10-18T02:44:48.622Z,12.40
2017-10-18T02:47:17.463Z,12.40
2017-10-18T02:49:46.311Z,12.50
2017-10-18T02:52:15.161Z,12.50
2017-10-18T02:54:43.833Z,12.40
2017-10-18T02:57:12.520Z,12.40
2017-10-18T02:59:41.549Z,12.40
2017-10-18T03:02:10.059Z,12.40
2017-10-18T03:04:39.713Z,12.40
2017-10-18T03:07:08.581Z,12.40
2017-10-18T03:09:38.204Z,12.40
2017-10-18T03:12:07.059Z,12.40
2017-10-18T03:14:36.787Z,12.40
2017-10-18T03:17:06.415Z,12.30
2017-10-18T03:19:35.268Z,12.30
2017-10-18T03:22:04.550Z,12.30
2017-10-18T03:24:33.411Z,12.30
2017-10-18T03:27:02.280Z,12.30
2017-10-18T03:29:31.133Z,12.20
2017-10-18T03:31:59.650Z,12.20
2017-10-18T03:34:28.166Z,12.20
2017-10-18T03:36:57.039Z,12.20
2017-10-18T03:39:25.222Z,12.20
2017-10-18T03:41:54.087Z,12.20
2017-10-18T03:44:23.520Z,12.20
2017-10-18T03:46:52.419Z,12.20
2017-10-18T03:49:21.291Z,12.20
2017-10-18T03:51:50.161Z,12.10
2017-10-18T03:54:19.604Z,12.10
2017-10-18T03:56:48.488Z,12.10
2017-10-18T03:59:17.358Z,12.20
2017-10-18T04:01:46.247Z,12.10
2017-10-18T04:04:15.098Z,12.10
2017-10-18T04:06:43.960Z,12.10
2017-10-18T04:09:13.130Z,12.10
2017-10-18T04:11:42.007Z,12.10
2017-10-18T04:14:11.637Z,12.00
2017-10-18T04:16:40.494Z,12.00
2017-10-18T04:19:09.375Z,12.00
2017-10-18T04:21:38.264Z,12.00
2017-10-18T04:24:09.004Z,12.00
2017-10-18T04:26:40.237Z,12.00
2017-10-18T04:29:09.088Z,12.00
2017-10-18T04:31:38.022Z,12.00
2017-10-18T04:34:06.919Z,12.00
2017-10-18T04:36:35.828Z,12.00
2017-10-18T04:39:03.823Z,12.00
2017-10-18T04:41:32.666Z,11.90
2017-10-18T04:44:01.522Z,11.90
2017-10-18T04:46:30.472Z,12.00
2017-10-18T04:49:00.109Z,12.00
2017-10-18T04:51:28.966Z,11.90
2017-10-18T04:53:58.595Z,12.00
2017-10-18T04:56:28.219Z,12.00
2017-10-18T04:58:57.067Z,12.00
2017-10-18T05:01:25.927Z,11.90
2017-10-18T05:03:54.850Z,11.90
2017-10-18T05:06:25.883Z,11.90
2017-10-18T05:08:54.405Z,11.90
2017-10-18T05:11:23.159Z,11.90
2017-10-18T05:13:52.936Z,11.90
2017-10-18T05:16:21.480Z,11.80
2017-10-18T05:18:51.102Z,11.80
2017-10-18T05:21:19.646Z,11.80
2017-10-18T05:23:48.523Z,11.80
2017-10-18T05:26:17.202Z,11.70
2017-10-18T05:28:46.059Z,11.70
2017-10-18T05:31:15.663Z,11.70
2017-10-18T05:33:45.277Z,11.80
2017-10-18T05:36:14.120Z,11.70
2017-10-18T05:38:43.831Z,11.80
2017-10-18T05:41:12.699Z,11.80
2017-10-18T05:43:41.564Z,11.90
2017-10-18T05:46:10.402Z,11.90
2017-10-18T05:48:39.357Z,11.90
2017-10-18T05:51:08.015Z,11.80
2017-10-18T05:53:37.627Z,11.90
2017-10-18T05:56:07.234Z,11.90
2017-10-18T05:58:36.912Z,11.90
2017-10-18T06:01:05.855Z,11.80
2017-10-18T06:03:34.706Z,11.90
2017-10-18T06:06:03.552Z,11.90
2017-10-18T06:08:32.400Z,11.90
2017-10-18T06:11:01.251Z,11.90
2017-10-18T06:13:30.097Z,11.90
2017-10-18T06:15:59.718Z,11.90
2017-10-18T06:18:29.311Z,11.90
2017-10-18T06:20:58.832Z,12.00
2017-10-18T06:23:27.514Z,12.00
2017-10-18T06:25:56.253Z,12.10
2017-10-18T06:28:24.943Z,12.00
2017-10-18T06:30:53.803Z,12.00
2017-10-18T06:33:22.670Z,12.00
2017-10-18T06:35:51.519Z,12.10
2017-10-18T06:38:20.184Z,12.20
2017-10-18T06:40:49.043Z,12.20
2017-10-18T06:43:18.660Z,12.40
2017-10-18T06:45:48.109Z,12.40
2017-10-18T06:48:16.982Z,12.40
2017-10-18T06:50:45.886Z,12.50
2017-10-18T06:53:14.761Z,12.60
2017-10-18T06:55:43.623Z,12.60
2017-10-18T06:58:12.863Z,12.60
2017-10-18T07:00:41.733Z,12.60
2017-10-18T07:03:10.614Z,12.70
2017-10-18T07:05:40.035Z,12.70
2017-10-18T07:08:08.887Z,12.80
2017-10-18T07:10:37.755Z,12.80
2017-10-18T07:13:06.625Z,12.80
2017-10-18T07:15:34.832Z,12.80
2017-10-18T07:18:04.469Z,13.00
2017-10-18T07:20:53.426Z,12.90
2017-10-18T07:23:22.307Z,13.10
2017-10-18T07:25:51.191Z,13.10
2017-10-18T07:28:20.822Z,13.20
2017-10-18T07:30:49.683Z,13.20
2017-10-18T07:33:19.341Z,13.30
2017-10-18T07:35:49.752Z,13.30
2017-10-18T07:38:19.531Z,13.40
2017-10-18T07:43:25.993Z,13.50
2017-10-18T07:46:00.152Z,13.70
2017-10-18T07:48:29.019Z,13.70
2017-10-18T07:50:58.541Z,13.70
2017-10-18T08:03:50.916Z,14.60
2017-10-18T08:06:20.264Z,14.60
2017-10-18T08:08:49.897Z,14.90
2017-10-18T08:11:23.534Z,14.80
2017-10-18T08:13:52.899Z,15.00
2017-10-18T08:16:26.339Z,15.20
2017-10-18T08:18:55.241Z,15.20
2017-10-18T08:21:25.474Z,15.40
2017-10-18T08:23:55.253Z,15.60
2017-10-18T08:26:25.032Z,15.70
2017-10-18T08:28:56.083Z,16.00
2017-10-18T08:31:26.587Z,16.20
2017-10-18T08:33:57.804Z,16.60
2017-10-18T08:36:27.223Z,16.50
2017-10-18T08:38:58.015Z,16.90
2017-10-18T08:41:27.543Z,16.90
2017-10-18T08:46:31.146Z,17.30
2017-10-18T08:49:00.858Z,17.40
2017-10-18T08:51:30.198Z,17.50
2017-10-18T08:53:59.069Z,17.70
2017-10-18T08:56:28.786Z,17.80
2017-10-18T08:58:57.628Z,17.90
2017-10-18T09:01:25.794Z,18.10
2017-10-18T09:03:54.460Z,18.20
2017-10-18T09:06:24.318Z,18.40
2017-10-18T09:08:53.162Z,18.30
2017-10-18T09:11:22.610Z,18.40
2017-10-18T09:13:51.290Z,18.40
2017-10-18T09:16:20.263Z,18.50
2017-10-18T09:18:49.135Z,18.70
2017-10-18T09:21:17.986Z,18.80
2017-10-18T09:23:46.870Z,19.00
2017-10-18T09:26:15.731Z,19.00
2017-10-18T09:28:45.391Z,19.10
2017-10-18T09:31:14.247Z,19.20
2017-10-18T09:33:44.675Z,19.40
2017-10-18T09:36:13.538Z,19.50
2017-10-18T09:38:43.164Z,19.80
2017-10-18T09:41:12.852Z,19.80
2017-10-18T09:43:42.470Z,19.90
2017-10-18T09:46:11.335Z,19.90
2017-10-18T09:48:40.175Z,20.00
2017-10-18T09:51:09.095Z,20.10
2017-10-18T09:53:37.987Z,20.10
2017-10-18T09:56:06.841Z,20.30
2017-10-18T09:58:35.692Z,20.40
2017-10-18T10:01:05.481Z,20.50
2017-10-18T10:03:34.977Z,20.60
2017-10-18T10:06:04.248Z,20.40
2017-10-18T10:08:33.111Z,20.40
2017-10-18T10:11:02.555Z,20.70
2017-10-18T10:13:32.199Z,20.60
2017-10-18T10:16:01.663Z,20.90
2017-10-18T10:18:30.534Z,21.10
2017-10-18T10:21:00.170Z,21.60
2017-10-18T10:23:29.036Z,21.60
2017-10-18T10:25:58.815Z,21.70
2017-10-18T10:28:27.670Z,21.90
2017-10-18T10:30:56.526Z,22.00
2017-10-18T10:33:26.173Z,22.40
2017-10-18T10:35:54.850Z,22.30
2017-10-18T10:38:23.350Z,22.60
2017-10-18T10:40:52.210Z,22.50
2017-10-18T10:43:21.056Z,22.60
2017-10-18T10:45:49.910Z,22.80
2017-10-18T10:48:18.768Z,22.80
2017-10-18T10:50:48.398Z,23.00
2017-10-18T10:53:17.263Z,22.90
2017-10-18T10:55:46.902Z,23.30
2017-10-18T10:58:15.791Z,23.30
2017-10-18T11:00:44.680Z,23.40
2017-10-18T11:03:13.530Z,23.50
2017-10-18T11:05:42.225Z,23.50
2017-10-18T11:08:11.078Z,23.60
2017-10-18T11:10:40.175Z,23.80
2017-10-18T11:13:09.038Z,23.90
2017-10-18T11:15:37.923Z,24.00
2017-10-18T11:18:08.276Z,24.20
2017-10-18T11:20:37.140Z,24.10
2017-10-18T11:23:06.078Z,24.20
2017-10-18T11:25:34.939Z,24.30
2017-10-18T11:28:03.795Z,24.30
2017-10-18T11:30:33.429Z,24.40
2017-10-18T11:33:03.150Z,24.40
2017-10-18T11:35:32.808Z,24.40
2017-10-18T11:38:01.942Z,24.40
2017-10-18T11:40:30.839Z,24.50
2017-10-18T11:42:59.693Z,24.60
2017-10-18T11:45:29.327Z,24.70
2017-10-18T11:47:58.944Z,24.70
2017-10-18T11:50:28.635Z,24.70
2017-10-18T11:52:58.263Z,24.80
2017-10-18T11:55:27.120Z,24.70
2017-10-18T11:57:56.005Z,24.70
2017-10-18T12:00:24.874Z,24.70
2017-10-18T12:02:53.815Z,24.50
2017-10-18T12:05:23.426Z,24.40
2017-10-18T12:07:53.042Z,24.00
2017-10-18T12:10:21.908Z,24.00
2017-10-18T12:12:50.738Z,23.60
2017-10-18T12:15:19.605Z,23.50
2017-10-18T12:17:48.488Z,23.50
2017-10-18T12:20:18.119Z,23.40
2017-10-18T12:22:46.970Z,23.40
2017-10-18T12:25:15.822Z,23.40
2017-10-18T12:27:44.686Z,23.40
2017-10-18T12:30:13.632Z,23.20
2017-10-18T12:32:42.502Z,23.00
2017-10-18T12:35:11.379Z,23.00
2017-10-18T12:37:41.850Z,22.90
2017-10-18T12:40:10.731Z,22.80
2017-10-18T12:42:39.605Z,22.90
2017-10-18T12:45:08.510Z,22.90
2017-10-18T12:47:37.393Z,22.90
2017-10-18T12:50:06.259Z,22.80
2017-10-18T12:52:35.118Z,22.80
2017-10-18T12:55:04.758Z,22.80
2017-10-18T12:57:33.630Z,22.80
2017-10-18T13:00:03.253Z,22.60
2017-10-18T13:02:32.011Z,22.60
2017-10-18T13:05:02.530Z,22.60
2017-10-18T13:07:32.615Z,22.60
2017-10-18T13:10:02.732Z,22.50
2017-10-18T13:12:31.647Z,22.50
2017-10-18T13:15:00.532Z,22.50
2017-10-18T13:17:30.862Z,22.40
2017-10-18T13:20:00.642Z,22.40
2017-10-18T13:22:30.455Z,22.40
2017-10-18T13:24:59.345Z,22.30
2017-10-18T13:27:28.240Z,22.30
2017-10-18T13:29:57.153Z,22.20
2017-10-18T13:32:26.125Z,22.20
2017-10-18T13:34:54.714Z,22.20
2017-10-18T13:37:23.273Z,22.20
2017-10-18T13:39:52.132Z,22.20
2017-10-18T13:42:20.980Z,22.20
2017-10-18T13:44:49.844Z,22.10
2017-10-18T13:47:19.576Z,22.10
2017-10-18T13:49:48.446Z,22.10
2017-10-18T13:52:18.213Z,22.10
2017-10-18T13:54:47.111Z,22.00
2017-10-18T13:57:16.005Z,22.00
2017-10-18T13:59:45.158Z,22.00
2017-10-18T14:02:14.023Z,22.00
2017-10-18T14:04:44.705Z,22.10
2017-10-18T14:07:14.459Z,22.10
2017-10-18T14:09:43.160Z,22.10
2017-10-18T14:12:12.778Z,22.40
2017-10-18T14:14:42.411Z,22.50
2017-10-18T14:17:11.315Z,22.50
2017-10-18T14:19:40.931Z,22.60
2017-10-18T14:22:10.923Z,22.60
2017-10-18T14:24:40.402Z,22.70
2017-10-18T14:27:10.023Z,22.90
2017-10-18T14:29:38.618Z,22.90
2017-10-18T14:32:07.287Z,23.00
2017-10-18T14:34:36.905Z,23.30
2017-10-18T14:37:06.135Z,23.30
2017-10-18T14:39:35.000Z,23.30
2017-10-18T14:42:03.886Z,23.30
2017-10-18T14:44:32.771Z,23.20
2017-10-18T14:47:02.430Z,22.90
2017-10-18T14:49:31.320Z,22.90
2017-10-18T14:52:01.183Z,22.70
2017-10-18T14:54:30.744Z,22.20
2017-10-18T14:56:59.631Z,22.20
2017-10-18T14:59:28.498Z,21.90
2017-10-18T15:01:57.624Z,21.70
2017-10-18T15:04:27.303Z,21.60
2017-10-18T15:06:56.203Z,21.40
2017-10-18T15:09:25.080Z,21.20
2017-10-18T15:11:53.962Z,21.00
2017-10-18T15:14:24.188Z,20.70
2017-10-18T15:16:53.055Z,20.60
2017-10-18T15:19:22.708Z,20.30
2017-10-18T15:21:51.570Z,20.30
2017-10-18T15:24:21.022Z,20.00
2017-10-18T15:26:49.411Z,19.90
2017-10-18T15:29:18.170Z,19.80
2017-10-18T15:31:47.054Z,19.60
2017-10-18T15:34:15.722Z,19.50
2017-10-18T15:36:45.345Z,19.20
2017-10-18T15:39:14.195Z,19.20
2017-10-18T15:41:43.995Z,19.10
2017-10-18T15:44:12.857Z,19.00
2017-10-18T15:46:42.569Z,19.00
2017-10-18T15:49:12.279Z,18.90
2017-10-18T15:51:42.211Z,18.80
2017-10-18T15:54:11.084Z,18.70
2017-10-18T15:56:39.942Z,18.60
2017-10-18T15:59:09.568Z,18.40
2017-10-18T16:01:39.225Z,18.40
2017-10-18T16:04:08.098Z,18.40
2017-10-18T16:06:37.289Z,18.20
2017-10-18T16:09:05.490Z,18.10
2017-10-18T16:11:34.340Z,18.10
2017-10-18T16:14:03.878Z,18.00
2017-10-18T16:16:32.739Z,18.00
2017-10-18T16:19:01.406Z,17.90
2017-10-18T16:21:31.044Z,17.70
2017-10-18T16:23:59.910Z,17.70
2017-10-18T16:26:29.526Z,17.60
2017-10-18T16:28:59.146Z,17.40
2017-10-18T16:31:30.150Z,17.40
2017-10-18T16:33:59.784Z,17.30
2017-10-18T16:36:29.040Z,17.30
2017-10-18T16:38:57.936Z,17.20
2017-10-18T16:41:26.831Z,17.20
2017-10-18T16:43:55.517Z,17.10
2017-10-18T16:46:24.390Z,17.20
2017-10-18T16:48:53.079Z,17.10
2017-10-18T16:51:21.950Z,17.00
2017-10-18T16:53:50.808Z,17.00
2017-10-18T16:56:21.174Z,16.90
2017-10-18T16:58:50.923Z,16.90
2017-10-18T17:01:19.785Z,16.80
2017-10-18T17:03:48.678Z,16.70
2017-10-18T17:06:17.560Z,16.70
2017-10-18T17:08:46.326Z,16.70
2017-10-18T17:11:15.312Z,16.70
2017-10-18T17:13:44.938Z,16.60
2017-10-18T17:16:13.812Z,16.60
2017-10-18T17:18:42.693Z,16.50
2017-10-18T17:21:12.674Z,16.50
2017-10-18T17:23:41.529Z,16.50
2017-10-18T17:26:11.110Z,16.50
2017-10-18T17:28:40.742Z,16.30
2017-10-18T17:31:09.315Z,16.30
2017-10-18T17:33:38.194Z,16.30
2017-10-18T17:36:07.057Z,16.30
2017-10-18T17:38:35.941Z,16.20
2017-10-18T17:41:05.808Z,16.20
2017-10-18T17:43:34.370Z,16.10
2017-10-18T17:46:04.026Z,16.00
2017-10-18T17:48:33.606Z,16.00
2017-10-18T17:51:02.941Z,15.90
2017-10-18T17:53:31.810Z,15.90
2017-10-18T17:56:00.671Z,15.90
2017-10-18T17:58:30.343Z,15.90
2017-10-18T18:00:59.230Z,15.90
2017-10-18T18:03:28.393Z,15.80
2017-10-18T18:05:57.263Z,15.80
2017-10-18T18:08:25.955Z,15.80
2017-10-18T18:10:54.849Z,15.70
2017-10-18T18:13:24.876Z,15.80
2017-10-18T18:15:53.726Z,15.70
2017-10-18T18:18:22.386Z,15.70
2017-10-18T18:20:51.246Z,16.00
2017-10-18T18:23:20.666Z,16.20
2017-10-18T18:25:49.569Z,16.30
2017-10-18T18:28:18.426Z,16.40
2017-10-18T18:30:47.286Z,16.50
2017-10-18T18:33:16.134Z,16.60
2017-10-18T18:35:45.736Z,16.70
2017-10-18T18:38:14.608Z,16.60
2017-10-18T18:40:44.045Z,16.70
2017-10-18T18:43:12.743Z,16.70
2017-10-18T18:45:41.602Z,16.80
2017-10-18T18:48:10.702Z,16.70
2017-10-18T18:50:39.619Z,16.60
2017-10-18T18:53:08.461Z,16.50
2017-10-18T18:55:38.083Z,16.40
2017-10-18T18:58:06.931Z,16.40
2017-10-18T19:00:35.860Z,16.40
2017-10-18T19:03:04.750Z,16.70
2017-10-18T19:05:34.423Z,16.60
2017-10-18T19:08:03.291Z,16.60
2017-10-18T19:10:31.995Z,16.60
2017-10-18T19:13:00.845Z,16.50
2017-10-18T19:15:29.708Z,16.50
2017-10-18T19:17:59.321Z,16.40
2017-10-18T19:20:28.766Z,16.40
2017-10-18T19:22:57.642Z,16.40
2017-10-18T19:25:26.490Z,16.40
2017-10-18T19:27:55.354Z,16.30
2017-10-18T19:30:24.621Z,16.40
2017-10-18T19:32:53.477Z,16.40
2017-10-18T19:35:23.107Z,16.20
2017-10-18T19:37:52.731Z,16.30
2017-10-18T19:40:21.578Z,16.30
2017-10-18T19:42:50.416Z,16.40
2017-10-18T19:45:19.280Z,16.40
2017-10-18T19:47:48.911Z,16.50
2017-10-18T19:50:17.750Z,16.50
2017-10-18T19:52:46.604Z,16.50
2017-10-18T19:55:15.449Z,16.40
2017-10-18T19:57:44.299Z,16.40
2017-10-18T20:00:13.167Z,16.40
2017-10-18T20:02:42.810Z,16.50
2017-10-18T20:05:11.673Z,16.50
2017-10-18T20:07:40.540Z,16.50
2017-10-18T20:10:11.932Z,16.40
2017-10-18T20:12:41.570Z,16.40
2017-10-18T20:15:10.435Z,16.30
2017-10-18T20:17:39.308Z,16.30
2017-10-18T20:20:08.154Z,16.40
2017-10-18T20:22:37.008Z,16.40
2017-10-18T20:25:07.486Z,16.40
2017-10-18T20:27:37.114Z,16.40
2017-10-18T20:30:05.967Z,16.40
2017-10-18T20:32:36.303Z,16.40
2017-10-18T20:35:05.932Z,16.50
2017-10-18T20:37:35.579Z,16.40
2017-10-18T20:40:04.455Z,16.40
2017-10-18T20:42:33.435Z,16.40
2017-10-18T20:45:02.942Z,16.50
2017-10-18T20:47:33.533Z,16.50
2017-10-18T20:50:02.407Z,16.50
2017-10-18T20:52:31.286Z,16.50
2017-10-18T20:55:00.160Z,16.50
2017-10-18T20:57:29.060Z,16.30
2017-10-18T20:59:57.925Z,16.20
2017-10-18T21:02:26.787Z,16.30
2017-10-18T21:04:56.443Z,16.20
2017-10-18T21:07:25.106Z,16.20
2017-10-18T21:09:54.532Z,16.00
2017-10-18T21:12:24.334Z,15.90
2017-10-18T21:14:53.194Z,15.80
2017-10-18T21:17:22.078Z,15.90
2017-10-18T21:19:50.966Z,16.00
2017-10-18T21:22:19.836Z,15.90
2017-10-18T21:24:48.674Z,15.80
2017-10-18T21:27:19.565Z,15.70
2017-10-18T21:32:21.456Z,15.70
2017-10-18T21:34:50.324Z,15.70
2017-10-18T21:37:19.958Z,15.70
2017-10-18T21:39:49.301Z,15.70
2017-10-18T21:42:19.626Z,15.70
2017-10-18T21:44:49.284Z,15.60
2017-10-18T21:47:18.159Z,15.60
2017-10-18T21:49:47.046Z,15.60
2017-10-18T21:52:15.922Z,15.60
2017-10-18T21:54:44.776Z,15.60
2017-10-18T21:57:13.647Z,15.60
2017-10-18T21:59:42.528Z,15.50
2017-10-18T22:02:11.379Z,15.40
2017-10-18T22:04:40.297Z,15.40
2017-10-18T22:07:09.142Z,15.30
2017-10-18T22:09:38.010Z,15.40
2017-10-18T22:12:06.850Z,15.40
2017-10-18T22:14:35.712Z,15.40
2017-10-18T22:17:04.558Z,15.40
2017-10-18T22:19:34.386Z,15.40
2017-10-18T22:22:04.779Z,15.40
2017-10-18T22:24:33.623Z,15.30
2017-10-18T22:27:02.487Z,15.20
2017-10-18T22:29:31.354Z,15.20
2017-10-18T22:32:00.210Z,15.10
2017-10-18T22:34:29.014Z,15.30
2017-10-18T22:36:57.871Z,15.20
2017-10-18T22:39:26.791Z,15.20
2017-10-18T22:41:56.420Z,15.10
2017-10-18T22:44:25.258Z,15.10
2017-10-18T22:46:54.114Z,15.20
2017-10-18T22:49:22.973Z,15.30
2017-10-18T22:51:52.601Z,15.20
2017-10-18T22:54:21.510Z,15.20
2017-10-18T22:56:50.359Z,15.00
2017-10-18T22:59:19.218Z,14.90
2017-10-18T23:01:48.071Z,15.00
2017-10-18T23:04:16.901Z,15.10
2017-10-18T23:06:45.763Z,15.20
2017-10-18T23:09:15.530Z,15.20
2017-10-18T23:11:45.949Z,15.00
2017-10-18T23:14:14.804Z,14.90
2017-10-18T23:16:43.669Z,14.90
2017-10-18T23:19:12.535Z,14.90
2017-10-18T23:21:42.159Z,14.80
2017-10-18T23:24:11.015Z,14.70
2017-10-18T23:26:39.858Z,14.80
2017-10-18T23:29:08.728Z,14.90
2017-10-18T23:31:37.685Z,14.90
2017-10-18T23:34:06.568Z,14.90
2017-10-18T23:36:35.434Z,14.90
2017-10-18T23:39:03.403Z,14.80
2017-10-18T23:41:32.249Z,14.70
2017-10-18T23:44:01.884Z,14.70
2017-10-18T23:46:30.766Z,14.70
2017-10-18T23:49:00.565Z,14.70
2017-10-18T23:51:30.191Z,14.80
2017-10-18T23:53:59.051Z,14.70
2017-10-18T23:56:27.922Z,14.70
2017-10-18T23:58:56.782Z,14.60
